Great Falls/Malmstrom AFB, Montana
Current Conditions -  °F | °C
As of 8:53 AM on Sunday 21 Dec 2014 (Local Time) from KGTF Reporting Station
Few Clouds Few Clouds  
Wind Chill: 34°   Ceiling: Unl
Heat Index: 42°   Visibility: 10mi
Dew Point: 32°   Wind: 17mph
Humidity: 67%   Direction: 220°SW
Pressure: 29.34"   Gusts: NA
Location:  47.47°N, 111.32°W
Report Text: KGTF 211553Z 22015KT 10SM FEW110 06/00 A2934 RMK AO2 SLP955 T00560000
Loading
Personal Weather Stations






























Interactive Weather Map New forecast layout! Learn more

10-Day Weather Forecast

Advertisements
Track Severe Weather on mobile